YFC weather

Fredericton Airport
Fredericton, New Brunswick, Canada

Public forecast

Using degrees Celsius for public forecast. Weather courtesy of forecast.io.

Current aviation weather report (METAR) for Fredericton Airport

Retrieved 2019/10/16 23:00 UTC (28 minutes ago):

CYFC 162300Z AUTO 15005KT 9SM CLR 10/02 A2997 RMK SLP151

Aviation forecast (TAF) for Fredericton Airport

Retrieved 2019/10/16 18:39 UTC (5 hours ago):

TAF TAF CYFC 161738Z 1618/1706 15006KT P6SM FEW240 BECMG 1702/1704 07010KT RMK FCST BASED ON AUTO OBS NXT FCST BY 170000Z